Time;durP1;ratioP1;P1;durP2;ratioP2;P2;SDS_P1;SDS_P2;PMS_P1;PMS_P2;Temp;Humidity;BMP_temperature;BMP_pressure;BME280_temperature;BME280_humidity;BME280_pressure;Samples;Min_cycle;Max_cycle;Signal;HPM_P1;HPM_P2
2023/07/10 00:00:58;;;;;;;35.28;19.50;;;;;;;;;;6342852;28;20162;-60
2023/07/10 00:04:26;;;;;;;31.48;18.10;;;;;;;;;;6343806;28;20035;-61
2023/07/10 00:07:27;;;;;;;30.75;16.40;;;;;;;;;;6343904;28;20047;-60
2023/07/10 00:10:29;;;;;;;29.40;18.27;;;;;;;;;;6343512;28;20055;-61
2023/07/10 00:13:30;;;;;;;32.53;18.77;;;;;;;;;;6342301;28;20141;-61
2023/07/10 00:16:31;;;;;;;33.03;18.57;;;;;;;;;;6343511;28;20425;-61
2023/07/10 00:19:32;;;;;;;31.00;18.67;;;;;;;;;;6343284;28;20043;-61
2023/07/10 00:22:32;;;;;;;29.60;17.63;;;;;;;;;;6342023;28;20063;-60
2023/07/10 00:25:33;;;;;;;26.33;17.17;;;;;;;;;;6343080;28;20063;-61
2023/07/10 00:28:34;;;;;;;27.90;16.73;;;;;;;;;;6343128;28;20482;-60
2023/07/10 00:31:35;;;;;;;26.70;17.80;;;;;;;;;;6341972;28;20047;-60
2023/07/10 00:34:36;;;;;;;29.63;17.67;;;;;;;;;;6342745;28;20060;-60
2023/07/10 00:37:36;;;;;;;28.57;16.50;;;;;;;;;;6343244;28;20048;-61
2023/07/10 00:40:37;;;;;;;27.17;16.23;;;;;;;;;;6342591;28;20044;-61
2023/07/10 00:43:44;;;;;;;28.13;17.37;;;;;;;;;;6342079;28;20047;-61
2023/07/10 00:47:10;;;;;;;26.77;17.02;;;;;;;;;;6342707;28;20412;-60
2023/07/10 00:50:45;;;;;;;27.38;16.23;;;;;;;;;;6311076;28;20138;-61
2023/07/10 00:53:47;;;;;;;26.52;15.85;;;;;;;;;;6327815;28;20089;-61
2023/07/10 00:56:49;;;;;;;25.15;15.60;;;;;;;;;;6341231;28;20052;-60
2023/07/10 00:59:51;;;;;;;24.00;15.05;;;;;;;;;;6343062;28;20414;-60
2023/07/10 01:02:51;;;;;;;24.92;15.73;;;;;;;;;;6342513;28;20499;-60
2023/07/10 01:05:52;;;;;;;25.40;15.87;;;;;;;;;;6341221;28;20039;-60
2023/07/10 01:08:59;;;;;;;27.15;15.20;;;;;;;;;;6342454;28;20448;-61
2023/07/10 01:12:03;;;;;;;23.85;14.70;;;;;;;;;;6341494;28;20047;-60
2023/07/10 01:15:06;;;;;;;27.60;15.18;;;;;;;;;;6341822;28;20047;-60
2023/07/10 01:18:10;;;;;;;24.20;14.95;;;;;;;;;;6341234;28;20044;-61
2023/07/10 01:21:32;;;;;;;26.77;15.20;;;;;;;;;;6342793;28;20086;-60
2023/07/10 01:24:34;;;;;;;28.27;15.60;;;;;;;;;;6342148;28;20406;-61
2023/07/10 01:27:35;;;;;;;23.73;15.32;;;;;;;;;;6341061;28;20051;-60
2023/07/10 01:30:38;;;;;;;25.77;14.97;;;;;;;;;;6342413;28;20051;-60
2023/07/10 01:33:43;;;;;;;26.55;15.43;;;;;;;;;;6342766;28;20054;-60
2023/07/10 01:36:45;;;;;;;27.20;14.73;;;;;;;;;;6341988;28;20078;-61
2023/07/10 01:39:47;;;;;;;;;;;;;;;;;;6341469;28;20047;-61
2023/07/10 01:42:47;;;;;;;24.37;15.27;;;;;;;;;;6342009;28;20018;-60
2023/07/10 01:45:49;;;;;;;25.20;15.07;;;;;;;;;;6341901;28;20283;-60
2023/07/10 01:48:53;;;;;;;26.40;14.77;;;;;;;;;;6340486;28;20104;-61
2023/07/10 01:51:55;;;;;;;28.00;16.35;;;;;;;;;;6346398;28;20051;-61
2023/07/10 01:54:56;;;;;;;23.92;15.10;;;;;;;;;;6347440;28;20124;-60
2023/07/10 01:57:57;;;;;;;26.57;15.17;;;;;;;;;;6345882;28;20040;-61
2023/07/10 02:00:57;;;;;;;25.98;15.45;;;;;;;;;;6346066;28;20047;-60
2023/07/10 02:03:58;;;;;;;28.27;15.67;;;;;;;;;;6347284;28;20036;-60
2023/07/10 02:06:58;;;;;;;26.30;15.13;;;;;;;;;;6346536;28;20048;-60
2023/07/10 02:09:59;;;;;;;27.60;15.57;;;;;;;;;;6345413;28;20047;-60
2023/07/10 02:13:00;;;;;;;28.73;15.50;;;;;;;;;;6346931;28;20410;-61
2023/07/10 02:16:03;;;;;;;27.20;15.63;;;;;;;;;;6346410;28;20089;-60
2023/07/10 02:19:04;;;;;;;26.30;14.88;;;;;;;;;;6344965;28;20055;-60
2023/07/10 02:22:05;;;;;;;25.35;15.38;;;;;;;;;;6328009;28;20208;-60
2023/07/10 02:25:06;;;;;;;27.97;15.23;;;;;;;;;;6346309;28;20040;-60
2023/07/10 02:28:07;;;;;;;28.07;15.27;;;;;;;;;;6345223;28;20094;-61
2023/07/10 02:31:08;;;;;;;27.43;14.73;;;;;;;;;;6345596;28;20421;-61
2023/07/10 02:34:09;;;;;;;19.98;14.05;;;;;;;;;;6346050;28;20043;-59
2023/07/10 02:37:09;;;;;;;23.33;14.63;;;;;;;;;;6345642;28;20410;-61
2023/07/10 02:40:10;;;;;;;24.13;14.43;;;;;;;;;;6345071;28;20398;-61
2023/07/10 02:43:10;;;;;;;27.13;15.13;;;;;;;;;;6346040;28;20058;-61
2023/07/10 02:46:11;;;;;;;25.63;16.40;;;;;;;;;;6345525;28;20043;-61
2023/07/10 02:49:12;;;;;;;26.70;16.00;;;;;;;;;;6344121;28;20044;-61
2023/07/10 02:52:12;;;;;;;28.30;15.80;;;;;;;;;;6345638;28;20047;-61
2023/07/10 02:55:13;;;;;;;29.20;14.73;;;;;;;;;;6345883;28;20058;-61
2023/07/10 02:58:14;;;;;;;25.42;14.80;;;;;;;;;;6344183;28;20047;-60
2023/07/10 03:01:15;;;;;;;23.55;14.38;;;;;;;;;;6343559;28;20502;-60
2023/07/10 03:04:16;;;;;;;26.83;14.63;;;;;;;;;;6344521;28;20128;-61
2023/07/10 03:07:16;;;;;;;24.67;14.03;;;;;;;;;;6344441;28;20064;-61
2023/07/10 03:10:18;;;;;;;22.73;13.65;;;;;;;;;;6344450;28;20519;-60
2023/07/10 03:13:18;;;;;;;21.63;13.45;;;;;;;;;;6344936;28;20075;-60
2023/07/10 03:16:19;;;;;;;28.73;14.40;;;;;;;;;;6344953;28;20043;-61
2023/07/10 03:19:20;;;;;;;28.70;14.13;;;;;;;;;;6343510;28;20048;-61
2023/07/10 03:22:20;;;;;;;23.80;14.23;;;;;;;;;;6345171;28;20067;-60
2023/07/10 03:25:21;;;;;;;22.87;14.40;;;;;;;;;;6345318;28;20051;-61
2023/07/10 03:28:22;;;;;;;27.07;14.57;;;;;;;;;;6344023;28;20077;-60
2023/07/10 03:31:22;;;;;;;26.90;14.20;;;;;;;;;;6344624;28;20058;-60
2023/07/10 03:34:23;;;;;;;26.53;14.40;;;;;;;;;;6344536;28;20044;-61
2023/07/10 03:37:24;;;;;;;21.80;14.10;;;;;;;;;;6343982;28;20054;-61
2023/07/10 03:40:25;;;;;;;30.35;13.98;;;;;;;;;;6343729;28;20139;-61
2023/07/10 03:43:26;;;;;;;24.20;14.15;;;;;;;;;;6344673;28;20051;-61
2023/07/10 03:46:27;;;;;;;22.38;14.50;;;;;;;;;;6344177;28;20488;-60
2023/07/10 03:49:27;;;;;;;24.90;13.93;;;;;;;;;;6343309;28;20559;-61
2023/07/10 03:52:28;;;;;;;27.08;13.90;;;;;;;;;;6344620;28;20068;-61
2023/07/10 03:55:29;;;;;;;24.38;13.93;;;;;;;;;;6344449;28;20509;-61
2023/07/10 03:58:32;;;;;;;22.97;13.70;;;;;;;;;;6342622;28;20070;-60
2023/07/10 04:01:32;;;;;;;25.60;14.63;;;;;;;;;;6343437;28;20058;-61
2023/07/10 04:04:33;;;;;;;29.40;14.10;;;;;;;;;;6343951;28;20047;-60
2023/07/10 04:07:33;;;;;;;25.23;14.27;;;;;;;;;;6343031;28;20051;-61
2023/07/10 04:10:36;;;;;;;25.25;13.82;;;;;;;;;;6343099;28;20134;-61
2023/07/10 04:13:36;;;;;;;;;;;;;;;;;;6325528;28;20048;-60
2023/07/10 04:16:37;;;;;;;22.10;12.25;;;;;;;;;;6343415;28;19923;-61
2023/07/10 04:19:37;;;;;;;24.07;13.73;;;;;;;;;;6341882;28;20120;-60
2023/07/10 04:22:38;;;;;;;30.05;13.85;;;;;;;;;;6343338;28;20055;-61
2023/07/10 04:25:38;;;;;;;21.90;13.17;;;;;;;;;;6343680;28;20051;-61
2023/07/10 04:28:39;;;;;;;23.63;13.40;;;;;;;;;;6341829;28;20074;-60
2023/07/10 04:31:40;;;;;;;25.13;12.67;;;;;;;;;;6343241;28;20039;-60
2023/07/10 04:34:40;;;;;;;25.53;13.37;;;;;;;;;;6343620;28;20140;-60
2023/07/10 04:37:41;;;;;;;24.57;13.03;;;;;;;;;;6342712;28;20460;-60
2023/07/10 04:40:51;;;;;;;24.33;13.73;;;;;;;;;;6342371;28;20039;-60
2023/07/10 04:43:52;;;;;;;26.67;13.55;;;;;;;;;;6343190;28;20078;-61
2023/07/10 04:46:53;;;;;;;24.30;13.67;;;;;;;;;;6342639;28;20124;-60
2023/07/10 04:49:53;;;;;;;26.77;14.60;;;;;;;;;;6341438;28;20432;-61
2023/07/10 04:52:54;;;;;;;24.63;14.40;;;;;;;;;;6342811;28;20044;-60
2023/07/10 04:55:54;;;;;;;28.80;15.90;;;;;;;;;;6342766;28;20043;-61
2023/07/10 04:58:57;;;;;;;26.00;14.53;;;;;;;;;;6341342;28;20553;-61
2023/07/10 05:01:57;;;;;;;33.90;16.48;;;;;;;;;;6342091;28;20517;-60
2023/07/10 05:04:58;;;;;;;31.13;15.90;;;;;;;;;;6342597;28;20039;-61
2023/07/10 05:08:00;;;;;;;26.57;15.67;;;;;;;;;;6341618;28;20044;-61
2023/07/10 05:11:01;;;;;;;35.15;18.88;;;;;;;;;;6341860;28;20123;-60
2023/07/10 05:14:01;;;;;;;28.83;18.17;;;;;;;;;;6342860;28;20368;-61
2023/07/10 05:17:02;;;;;;;33.00;19.27;;;;;;;;;;6342085;28;20482;-60
2023/07/10 05:20:03;;;;;;;30.17;18.73;;;;;;;;;;6341170;28;20043;-61
2023/07/10 05:23:03;;;;;;;31.77;18.87;;;;;;;;;;6342157;28;20039;-61
2023/07/10 05:26:06;;;;;;;42.40;18.97;;;;;;;;;;6341354;28;20088;-61
2023/07/10 05:29:07;;;;;;;30.98;19.35;;;;;;;;;;6340990;28;20052;-61
2023/07/10 05:32:08;;;;;;;35.47;20.67;;;;;;;;;;6341958;28;20047;-61
2023/07/10 05:35:09;;;;;;;36.13;21.40;;;;;;;;;;6341872;28;20150;-61
2023/07/10 05:38:09;;;;;;;35.70;21.03;;;;;;;;;;6341475;28;20036;-61
2023/07/10 05:41:10;;;;;;;33.83;21.50;;;;;;;;;;6341238;28;20470;-61
2023/07/10 05:44:11;;;;;;;44.70;22.43;;;;;;;;;;6341876;28;20051;-61
2023/07/10 05:47:11;;;;;;;37.70;21.90;;;;;;;;;;6341668;28;20040;-60
2023/07/10 05:50:12;;;;;;;38.20;20.87;;;;;;;;;;6339352;28;20047;-60
2023/07/10 05:53:17;;;;;;;32.63;20.10;;;;;;;;;;6341990;28;20044;-61
2023/07/10 05:56:18;;;;;;;40.17;21.02;;;;;;;;;;6341590;28;20421;-61
2023/07/10 05:59:19;;;;;;;41.33;22.10;;;;;;;;;;6340371;28;20039;-61
2023/07/10 06:02:19;;;;;;;38.90;22.57;;;;;;;;;;6341330;28;20066;-61
2023/07/10 06:05:20;;;;;;;38.33;22.17;;;;;;;;;;6341663;28;20047;-61
2023/07/10 06:08:20;;;;;;;36.27;20.37;;;;;;;;;;6340917;28;20058;-61
2023/07/10 06:11:21;;;;;;;42.03;23.57;;;;;;;;;;6341073;28;20046;-61
2023/07/10 06:14:21;;;;;;;35.13;22.20;;;;;;;;;;6323487;28;20044;-61
2023/07/10 06:17:22;;;;;;;37.23;21.37;;;;;;;;;;6341758;28;20470;-62
2023/07/10 06:20:23;;;;;;;38.53;22.10;;;;;;;;;;6340243;28;20048;-61
2023/07/10 06:23:25;;;;;;;39.80;21.97;;;;;;;;;;6341971;28;20067;-61
2023/07/10 06:26:25;;;;;;;36.97;21.90;;;;;;;;;;6341688;28;20047;-61
2023/07/10 06:29:26;;;;;;;38.70;22.20;;;;;;;;;;6340085;28;20380;-61
2023/07/10 06:32:26;;;;;;;42.13;22.60;;;;;;;;;;6341549;28;20050;-60
2023/07/10 06:35:27;;;;;;;37.77;22.87;;;;;;;;;;6341742;28;20045;-61
2023/07/10 06:38:28;;;;;;;40.17;23.00;;;;;;;;;;6344987;28;20062;-61
2023/07/10 06:41:29;;;;;;;38.67;21.90;;;;;;;;;;6345607;28;20044;-61
2023/07/10 06:44:29;;;;;;;41.40;22.63;;;;;;;;;;6345737;28;20592;-61
2023/07/10 06:47:31;;;;;;;40.60;23.47;;;;;;;;;;6346198;28;20508;-61
2023/07/10 06:50:32;;;;;;;38.15;22.63;;;;;;;;;;6344551;28;20064;-61
2023/07/10 06:53:32;;;;;;;39.17;22.47;;;;;;;;;;6345941;28;20075;-61
2023/07/10 06:56:34;;;;;;;38.57;22.97;;;;;;;;;;6346033;28;20495;-61
2023/07/10 06:59:34;;;;;;;38.95;22.60;;;;;;;;;;6344131;28;20504;-61
2023/07/10 07:02:36;;;;;;;32.57;21.20;;;;;;;;;;6345550;28;20059;-61
2023/07/10 07:05:39;;;;;;;;;;;;;;;;;;6345862;28;20075;-61
2023/07/10 07:08:41;;;;;;;37.88;22.00;;;;;;;;;;6344745;28;20298;-61
2023/07/10 07:11:42;;;;;;;41.08;21.98;;;;;;;;;;6345089;28;20131;-61
2023/07/10 07:14:43;;;;;;;35.33;22.07;;;;;;;;;;6345062;28;20135;-61
2023/07/10 07:17:43;;;;;;;31.73;20.93;;;;;;;;;;6344808;28;20142;-61
2023/07/10 07:20:44;;;;;;;35.93;21.90;;;;;;;;;;6344061;28;20058;-61
2023/07/10 07:23:44;;;;;;;38.80;22.70;;;;;;;;;;6344863;28;20147;-61
2023/07/10 07:26:45;;;;;;;33.57;21.37;;;;;;;;;;6344849;28;20051;-61
2023/07/10 07:29:50;;;;;;;40.13;21.90;;;;;;;;;;6343625;28;20056;-60
2023/07/10 07:32:51;;;;;;;38.22;22.80;;;;;;;;;;6344674;28;20126;-61
2023/07/10 07:35:51;;;;;;;35.43;22.30;;;;;;;;;;6344781;28;20506;-61
2023/07/10 07:38:52;;;;;;;36.90;22.53;;;;;;;;;;6343592;28;20043;-61
2023/07/10 07:41:53;;;;;;;34.67;22.10;;;;;;;;;;6343986;28;20132;-61
2023/07/10 07:44:54;;;;;;;40.80;22.27;;;;;;;;;;6344599;28;20051;-61
2023/07/10 07:47:55;;;;;;;34.60;21.65;;;;;;;;;;6343744;28;20308;-61
2023/07/10 07:51:07;;;;;;;35.80;22.50;;;;;;;;;;6343465;28;20052;-61
2023/07/10 07:54:11;;;;;;;35.33;23.23;;;;;;;;;;6344102;28;20130;-59
2023/07/10 07:57:12;;;;;;;39.60;22.92;;;;;;;;;;6344128;28;20059;-61
2023/07/10 08:00:13;;;;;;;34.67;21.53;;;;;;;;;;6342513;28;20513;-61
2023/07/10 08:03:13;;;;;;;36.63;21.60;;;;;;;;;;6343611;28;20060;-61
2023/07/10 08:06:15;;;;;;;36.07;22.17;;;;;;;;;;6343784;28;20205;-61
2023/07/10 08:09:15;;;;;;;34.10;21.45;;;;;;;;;;6343120;28;20130;-61
2023/07/10 08:12:16;;;;;;;37.45;22.60;;;;;;;;;;6342727;28;20649;-61
2023/07/10 08:15:17;;;;;;;37.33;22.23;;;;;;;;;;6344036;28;20062;-61
2023/07/10 08:18:18;;;;;;;30.17;20.90;;;;;;;;;;6343537;28;20082;-61
2023/07/10 08:21:19;;;;;;;34.23;21.63;;;;;;;;;;6342212;28;20120;-61
2023/07/10 08:24:20;;;;;;;40.10;22.80;;;;;;;;;;6343347;28;20509;-61
2023/07/10 08:27:20;;;;;;;36.37;21.50;;;;;;;;;;6343650;28;20138;-61
2023/07/10 08:30:21;;;;;;;34.67;21.87;;;;;;;;;;6323611;28;20047;-61
2023/07/10 08:33:21;;;;;;;36.00;21.80;;;;;;;;;;6343153;28;20044;-61
2023/07/10 08:36:22;;;;;;;37.50;20.98;;;;;;;;;;6343121;28;20047;-61
2023/07/10 08:39:23;;;;;;;35.90;21.67;;;;;;;;;;6342290;28;20039;-61
2023/07/10 08:42:30;;;;;;;36.80;23.02;;;;;;;;;;6342563;28;20039;-61
2023/07/10 08:45:36;;;;;;;40.30;22.80;;;;;;;;;;6343178;28;20475;-61
2023/07/10 08:48:46;;;;;;;35.47;22.10;;;;;;;;;;6342972;28;20498;-61
2023/07/10 08:52:07;;;;;;;34.25;22.40;;;;;;;;;;6341825;28;20108;-61
2023/07/10 08:55:12;;;;;;;42.85;24.10;;;;;;;;;;6342403;28;20047;-61
2023/07/10 08:58:25;;;;;;;33.17;21.60;;;;;;;;;;6341539;28;20632;-61
2023/07/10 09:01:36;;;;;;;33.72;21.58;;;;;;;;;;6341946;28;20150;-61
2023/07/10 09:04:43;;;;;;;31.92;21.70;;;;;;;;;;6340860;28;20059;-61
2023/07/10 09:07:45;;;;;;;32.60;21.30;;;;;;;;;;6342327;28;20452;-61
2023/07/10 09:10:50;;;;;;;32.10;19.45;;;;;;;;;;6342386;28;20051;-61
2023/07/10 09:14:10;;;;;;;28.20;18.15;;;;;;;;;;6341371;28;20562;-61
2023/07/10 09:17:17;;;;;;;28.85;19.02;;;;;;;;;;6341512;28;20047;-60
2023/07/10 09:20:21;;;;;;;28.38;18.58;;;;;;;;;;6342169;28;20486;-60
2023/07/10 09:23:28;;;;;;;30.52;19.50;;;;;;;;;;6342689;28;20070;-61
2023/07/10 09:26:38;;;;;;;33.08;18.42;;;;;;;;;;6340693;28;20138;-61
2023/07/10 09:29:40;;;;;;;28.70;18.65;;;;;;;;;;6341776;28;20047;-60
2023/07/10 09:32:42;;;;;;;21.67;15.38;;;;;;;;;;6342581;28;20049;-61
2023/07/10 09:35:43;;;;;;;;;;;;;;;;;;6342272;28;20513;-61
2023/07/10 09:38:46;;;;;;;22.63;14.50;;;;;;;;;;6341020;28;20006;-61
2023/07/10 09:41:47;;;;;;;27.92;16.90;;;;;;;;;;6341748;28;20461;-60
2023/07/10 09:44:52;;;;;;;26.27;17.30;;;;;;;;;;6341946;28;20394;-61
2023/07/10 09:47:53;;;;;;;29.88;19.33;;;;;;;;;;6340401;28;20058;-61
2023/07/10 09:50:54;;;;;;;27.42;19.48;;;;;;;;;;6341373;28;20055;-60
2023/07/10 09:54:04;;;;;;;27.33;18.03;;;;;;;;;;6341859;28;20092;-61
2023/07/10 09:57:13;;;;;;;25.45;17.38;;;;;;;;;;6340822;28;20070;-61
2023/07/10 10:00:19;;;;;;;31.25;18.08;;;;;;;;;;6341040;28;20126;-61
2023/07/10 10:03:32;;;;;;;28.25;17.95;;;;;;;;;;6341548;28;20054;-61
2023/07/10 10:06:32;;;;;;;28.70;18.58;;;;;;;;;;6341899;28;20177;-61
2023/07/10 10:09:34;;;;;;;28.63;18.80;;;;;;;;;;6339966;28;20044;-60
2023/07/10 10:12:35;;;;;;;25.20;17.30;;;;;;;;;;6345844;28;20047;-60
2023/07/10 10:15:36;;;;;;;24.50;16.98;;;;;;;;;;6346772;28;20086;-60
2023/07/10 10:18:43;;;;;;;20.70;14.30;;;;;;;;;;6345869;28;20048;-61
2023/07/10 10:21:44;;;;;;;26.50;13.80;;;;;;;;;;6346063;28;20131;-61
2023/07/10 10:24:45;;;;;;;19.10;13.10;;;;;;;;;;6346193;28;20043;-60
2023/07/10 10:28:17;;;;;;;22.20;13.30;;;;;;;;;;6346184;28;20047;-61
2023/07/10 10:31:26;;;;;;;19.92;12.95;;;;;;;;;;6345232;28;20058;-61
2023/07/10 10:34:51;;;;;;;21.63;14.15;;;;;;;;;;6345646;28;20047;-61
2023/07/10 10:38:14;;;;;;;23.63;14.30;;;;;;;;;;6346748;28;20051;-60
2023/07/10 10:41:22;;;;;;;21.63;13.77;;;;;;;;;;6345911;28;20054;-60
2023/07/10 10:44:27;;;;;;;21.58;12.70;;;;;;;;;;6345128;28;20055;-61
2023/07/10 10:47:38;;;;;;;22.52;13.27;;;;;;;;;;6345144;28;20057;-60
2023/07/10 10:50:47;;;;;;;19.30;12.03;;;;;;;;;;6345844;28;20425;-61
2023/07/10 10:54:01;;;;;;;18.60;12.38;;;;;;;;;;6345602;28;20276;-61
2023/07/10 10:57:40;;;;;;;18.42;12.23;;;;;;;;;;6344062;28;20052;-61
2023/07/10 11:01:02;;;;;;;21.30;12.00;;;;;;;;;;6344475;28;20486;-60
2023/07/10 11:04:15;;;;;;;16.52;11.50;;;;;;;;;;6345267;28;20448;-61
2023/07/10 11:07:19;;;;;;;20.60;11.80;;;;;;;;;;6345248;28;20059;-60
2023/07/10 11:10:30;;;;;;;23.50;12.77;;;;;;;;;;6344359;28;20067;-61
2023/07/10 11:13:35;;;;;;;20.15;12.05;;;;;;;;;;6344402;28;20510;-61
2023/07/10 11:16:36;;;;;;;17.00;11.20;;;;;;;;;;6345015;28;20127;-61
2023/07/10 11:19:37;;;;;;;17.40;10.90;;;;;;;;;;6345075;28;20056;-61
2023/07/10 11:22:49;;;;;;;18.70;11.05;;;;;;;;;;6342929;28;20410;-61
2023/07/10 11:25:59;;;;;;;18.27;10.73;;;;;;;;;;6345463;28;20070;-61
2023/07/10 11:29:27;;;;;;;17.52;10.80;;;;;;;;;;6344662;28;20043;-61
2023/07/10 11:32:28;;;;;;;16.05;10.57;;;;;;;;;;6344474;28;20406;-61
2023/07/10 11:35:30;;;;;;;19.77;11.30;;;;;;;;;;6343087;28;20054;-61
2023/07/10 11:38:34;;;;;;;18.85;12.10;;;;;;;;;;6344772;28;20098;-61
2023/07/10 11:41:35;;;;;;;18.45;11.50;;;;;;;;;;6344359;28;20086;-61
2023/07/10 11:44:40;;;;;;;17.75;12.40;;;;;;;;;;6343237;28;20138;-61
2023/07/10 11:47:46;;;;;;;18.58;12.00;;;;;;;;;;6326105;28;20035;-61
2023/07/10 11:50:48;;;;;;;21.30;12.98;;;;;;;;;;6344658;28;20131;-61
2023/07/10 11:54:01;;;;;;;19.30;13.48;;;;;;;;;;6344395;28;20060;-61
2023/07/10 11:57:08;;;;;;;22.42;13.65;;;;;;;;;;6342795;28;20039;-60
2023/07/10 12:00:14;;;;;;;19.20;14.02;;;;;;;;;;6344227;28;20408;-61
2023/07/10 12:03:15;;;;;;;20.27;13.45;;;;;;;;;;6343786;28;20052;-61
2023/07/10 12:06:22;;;;;;;22.03;13.60;;;;;;;;;;6342613;28;20471;-61
2023/07/10 12:09:23;;;;;;;20.95;14.00;;;;;;;;;;6343170;28;20069;-61
2023/07/10 12:12:30;;;;;;;24.00;13.73;;;;;;;;;;6343882;28;20487;-61
2023/07/10 12:15:31;;;;;;;20.50;13.50;;;;;;;;;;6343427;28;20371;-61
2023/07/10 12:18:35;;;;;;;26.52;15.27;;;;;;;;;;6342349;28;20061;-61
2023/07/10 12:21:36;;;;;;;20.15;14.18;;;;;;;;;;6344057;28;20052;-61
2023/07/10 12:24:48;;;;;;;24.33;14.97;;;;;;;;;;6343572;28;20046;-61
2023/07/10 12:27:49;;;;;;;21.23;15.00;;;;;;;;;;6342370;28;20118;-61
2023/07/10 12:30:52;;;;;;;24.23;16.40;;;;;;;;;;6343191;28;20043;-61
2023/07/10 12:33:53;;;;;;;23.60;17.25;;;;;;;;;;6342887;28;20494;-61
2023/07/10 12:36:55;;;;;;;25.23;16.60;;;;;;;;;;6342967;28;20139;-61
2023/07/10 12:39:56;;;;;;;26.25;17.30;;;;;;;;;;6341935;28;20151;-60
2023/07/10 12:43:08;;;;;;;23.23;16.90;;;;;;;;;;6343039;28;20516;-60
2023/07/10 12:46:15;;;;;;;30.55;17.38;;;;;;;;;;6342802;28;20067;-61
2023/07/10 12:49:16;;;;;;;27.55;17.80;;;;;;;;;;6341299;28;20104;-60
2023/07/10 12:52:18;;;;;;;26.38;17.45;;;;;;;;;;6342873;28;20475;-61
2023/07/10 12:55:18;;;;;;;27.70;17.70;;;;;;;;;;6342623;28;20465;-61
2023/07/10 12:58:20;;;;;;;31.05;17.55;;;;;;;;;;6342361;28;20046;-61
2023/07/10 13:01:24;;;;;;;26.00;17.42;;;;;;;;;;6342034;28;20121;-60
2023/07/10 13:04:27;;;;;;;30.77;18.17;;;;;;;;;;6342453;28;20085;-60
2023/07/10 13:07:33;;;;;;;25.13;17.20;;;;;;;;;;6342283;28;20104;-61
2023/07/10 13:10:42;;;;;;;28.85;17.27;;;;;;;;;;6341167;28;20043;-61
2023/07/10 13:13:44;;;;;;;29.92;17.40;;;;;;;;;;6342416;28;20048;-61
2023/07/10 13:16:44;;;;;;;25.60;17.42;;;;;;;;;;6343087;28;20541;-61
2023/07/10 13:19:45;;;;;;;26.47;17.00;;;;;;;;;;6341195;28;20096;-61
2023/07/10 13:22:46;;;;;;;28.60;16.77;;;;;;;;;;6342366;28;20055;-61
2023/07/10 13:25:46;;;;;;;24.92;17.35;;;;;;;;;;6342321;28;20164;-61
2023/07/10 13:28:50;;;;;;;27.88;17.48;;;;;;;;;;6341575;28;20051;-61
2023/07/10 13:31:50;;;;;;;25.88;17.17;;;;;;;;;;6341134;28;20048;-61
2023/07/10 13:34:51;;;;;;;28.55;17.67;;;;;;;;;;6341972;28;20050;-61
2023/07/10 13:37:51;;;;;;;27.23;17.43;;;;;;;;;;6341377;28;20150;-61
2023/07/10 13:40:52;;;;;;;23.58;17.63;;;;;;;;;;6339989;28;20133;-61
2023/07/10 13:43:53;;;;;;;25.23;17.63;;;;;;;;;;6342192;28;20407;-61
2023/07/10 13:46:53;;;;;;;28.70;18.73;;;;;;;;;;6344936;28;20518;-61
2023/07/10 13:49:56;;;;;;;27.33;18.63;;;;;;;;;;6346433;28;20402;-61
2023/07/10 13:52:57;;;;;;;27.80;18.17;;;;;;;;;;6346787;28;20054;-61
2023/07/10 13:55:57;;;;;;;25.58;18.85;;;;;;;;;;6346885;28;20044;-61
2023/07/10 13:58:59;;;;;;;26.38;18.70;;;;;;;;;;6346802;28;20095;-61
2023/07/10 14:01:59;;;;;;;26.60;18.10;;;;;;;;;;6345462;28;20055;-61
2023/07/10 14:05:05;;;;;;;26.65;17.40;;;;;;;;;;6347418;28;20054;-61
2023/07/10 14:08:23;;;;;;;25.33;18.83;;;;;;;;;;6347101;28;20574;-61
2023/07/10 14:11:25;;;;;;;27.40;18.83;;;;;;;;;;6345451;28;20119;-61
2023/07/10 14:14:26;;;;;;;26.10;17.58;;;;;;;;;;6346645;28;20051;-61
2023/07/10 14:17:31;;;;;;;;;;;;;;;;;;6347570;28;20179;-61
2023/07/10 14:20:31;;;;;;;27.10;17.45;;;;;;;;;;6345948;28;19923;-61
2023/07/10 14:23:32;;;;;;;27.83;18.42;;;;;;;;;;6345670;28;20040;-61
2023/07/10 14:26:33;;;;;;;32.38;17.40;;;;;;;;;;6346311;28;20047;-61
2023/07/10 14:29:34;;;;;;;28.42;18.00;;;;;;;;;;6346135;28;20387;-61
2023/07/10 14:32:34;;;;;;;28.67;17.92;;;;;;;;;;6344701;28;20050;-61
2023/07/10 14:35:36;;;;;;;24.70;17.30;;;;;;;;;;6346656;28;20054;-61
2023/07/10 14:38:36;;;;;;;;;;;;;;;;;;6346703;28;20418;-61
2023/07/10 14:41:37;;;;;;;27.63;17.87;;;;;;;;;;6344590;28;19953;-61
2023/07/10 14:44:37;;;;;;;25.57;17.60;;;;;;;;;;6345868;28;20486;-61
2023/07/10 14:47:38;;;;;;;27.77;18.42;;;;;;;;;;6345710;28;20312;-61
2023/07/10 14:50:38;;;;;;;27.33;19.37;;;;;;;;;;6345252;28;20052;-61
2023/07/10 14:53:39;;;;;;;26.45;18.00;;;;;;;;;;6345628;28;20051;-61
2023/07/10 14:56:41;;;;;;;31.60;18.60;;;;;;;;;;6345929;28;20051;-61
2023/07/10 14:59:42;;;;;;;25.65;17.58;;;;;;;;;;6345609;28;20074;-61
2023/07/10 15:02:42;;;;;;;28.13;18.67;;;;;;;;;;6343850;28;20051;-60
2023/07/10 15:05:46;;;;;;;25.92;17.63;;;;;;;;;;6346046;28;20116;-60
2023/07/10 15:08:49;;;;;;;86.97;40.85;;;;;;;;;;6345857;28;20051;-61
2023/07/10 15:11:50;;;;;;;67.07;32.58;;;;;;;;;;6343359;28;20169;-61
2023/07/10 15:14:50;;;;;;;58.07;28.63;;;;;;;;;;6345210;28;20516;-60
2023/07/10 15:17:51;;;;;;;57.90;26.45;;;;;;;;;;6345030;28;20540;-61
2023/07/10 15:20:52;;;;;;;35.77;19.63;;;;;;;;;;6344539;28;20406;-61
2023/07/10 15:23:52;;;;;;;28.23;18.63;;;;;;;;;;6344485;28;20523;-61
2023/07/10 15:26:53;;;;;;;29.93;17.77;;;;;;;;;;6344992;28;20050;-61
2023/07/10 15:29:54;;;;;;;26.55;17.67;;;;;;;;;;6344669;28;20490;-61
2023/07/10 15:32:56;;;;;;;27.23;17.97;;;;;;;;;;6343445;28;20048;-61
2023/07/10 15:35:56;;;;;;;27.63;18.17;;;;;;;;;;6344984;28;20061;-61
2023/07/10 15:38:57;;;;;;;32.00;18.53;;;;;;;;;;6344879;28;20040;-61
2023/07/10 15:41:58;;;;;;;28.75;17.48;;;;;;;;;;6343247;28;20040;-61
2023/07/10 15:44:58;;;;;;;27.60;18.23;;;;;;;;;;6344274;28;20051;-60
2023/07/10 15:48:00;;;;;;;25.80;16.58;;;;;;;;;;6344346;28;20135;-60
2023/07/10 15:51:01;;;;;;;24.48;15.43;;;;;;;;;;6344053;28;20055;-61
2023/07/10 15:54:02;;;;;;;22.38;15.27;;;;;;;;;;6343630;28;20066;-60
2023/07/10 15:57:03;;;;;;;27.80;14.65;;;;;;;;;;6343848;28;20581;-61
2023/07/10 16:00:06;;;;;;;24.13;14.15;;;;;;;;;;6344220;28;20050;-61
2023/07/10 16:03:15;;;;;;;23.17;13.93;;;;;;;;;;6342518;28;20097;-60
2023/07/10 16:06:16;;;;;;;21.50;13.05;;;;;;;;;;6343844;28;20152;-60
2023/07/10 16:09:18;;;;;;;18.33;12.43;;;;;;;;;;6343911;28;20070;-61
2023/07/10 16:12:19;;;;;;;24.20;11.93;;;;;;;;;;6342577;28;20508;-61
2023/07/10 16:15:24;;;;;;;19.70;12.20;;;;;;;;;;6343419;28;20183;-61
2023/07/10 16:18:28;;;;;;;19.58;12.75;;;;;;;;;;6344277;28;20135;-61
2023/07/10 16:21:28;;;;;;;18.77;12.13;;;;;;;;;;6343780;28;20109;-61
2023/07/10 16:24:30;;;;;;;22.55;11.93;;;;;;;;;;6342279;28;20513;-60
2023/07/10 16:27:31;;;;;;;18.67;10.80;;;;;;;;;;6343374;28;20101;-60
2023/07/10 16:30:32;;;;;;;18.00;10.20;;;;;;;;;;6343688;28;20132;-61
2023/07/10 16:33:32;;;;;;;16.52;11.07;;;;;;;;;;6342481;28;20410;-60
2023/07/10 16:36:33;;;;;;;17.83;10.23;;;;;;;;;;6343258;28;20044;-61
2023/07/10 16:39:33;;;;;;;19.13;10.43;;;;;;;;;;6342983;28;20292;-60
2023/07/10 16:42:34;;;;;;;19.42;10.57;;;;;;;;;;6342468;28;20048;-61
2023/07/10 16:45:35;;;;;;;17.97;11.10;;;;;;;;;;6342980;28;20108;-61
2023/07/10 16:48:35;;;;;;;18.73;10.77;;;;;;;;;;6343636;28;20168;-60
2023/07/10 16:51:36;;;;;;;25.10;11.93;;;;;;;;;;6342623;28;20043;-61
2023/07/10 16:54:37;;;;;;;18.55;10.80;;;;;;;;;;6341950;28;20055;-61
2023/07/10 16:57:37;;;;;;;21.53;10.70;;;;;;;;;;6342886;28;20043;-61
2023/07/10 17:00:38;;;;;;;21.87;11.00;;;;;;;;;;6342861;28;20300;-60
2023/07/10 17:03:38;;;;;;;18.33;10.17;;;;;;;;;;6340977;28;20055;-60
2023/07/10 17:06:39;;;;;;;19.87;10.70;;;;;;;;;;6342515;28;20090;-60
2023/07/10 17:09:40;;;;;;;24.07;10.73;;;;;;;;;;6343245;28;20047;-61
2023/07/10 17:12:42;;;;;;;25.77;11.50;;;;;;;;;;6341237;28;20307;-61
2023/07/10 17:15:45;;;;;;;21.92;12.00;;;;;;;;;;6341946;28;20100;-60
2023/07/10 17:18:45;;;;;;;22.92;12.98;;;;;;;;;;6342337;28;20126;-60
2023/07/10 17:21:46;;;;;;;29.53;14.40;;;;;;;;;;6340909;28;20051;-61
2023/07/10 17:24:46;;;;;;;23.10;12.70;;;;;;;;;;6341406;28;20040;-60
2023/07/10 17:27:47;;;;;;;23.07;13.33;;;;;;;;;;6342585;28;20353;-61
2023/07/10 17:30:50;;;;;;;26.73;13.90;;;;;;;;;;6342250;28;20479;-61
2023/07/10 17:33:53;;;;;;;25.42;13.52;;;;;;;;;;6340593;28;20280;-60
2023/07/10 17:36:54;;;;;;;25.38;12.93;;;;;;;;;;6342001;28;20470;-60
2023/07/10 17:39:54;;;;;;;22.67;12.45;;;;;;;;;;6341855;28;20459;-61
2023/07/10 17:42:55;;;;;;;24.38;12.40;;;;;;;;;;6340801;28;20052;-61
2023/07/10 17:45:56;;;;;;;21.37;12.97;;;;;;;;;;6341534;28;20056;-60